createdAt,value
2019-06-27T00:00:00.695Z,1020.80
2019-06-27T00:01:05.084Z,1020.79
2019-06-27T00:02:09.475Z,1020.81
2019-06-27T00:03:14.014Z,1020.82
2019-06-27T00:04:18.338Z,1020.79
2019-06-27T00:05:22.732Z,1020.80
2019-06-27T00:06:27.155Z,1020.80
2019-06-27T00:07:31.556Z,1020.83
2019-06-27T00:08:35.969Z,1020.81
2019-06-27T00:09:40.381Z,1020.84
2019-06-27T00:10:44.708Z,1020.86
2019-06-27T00:11:49.220Z,1020.86
2019-06-27T00:12:53.601Z,1020.89
2019-06-27T00:13:57.992Z,1020.90
2019-06-27T00:15:02.409Z,1020.89
2019-06-27T00:16:09.730Z,1020.90
2019-06-27T00:17:13.165Z,1020.93
2019-06-27T00:18:17.473Z,1020.93
2019-06-27T00:19:21.952Z,1020.91
2019-06-27T00:20:26.471Z,1020.92
2019-06-27T00:21:30.903Z,1020.91
2019-06-27T00:22:35.313Z,1020.92
2019-06-27T00:23:39.817Z,1020.95
2019-06-27T00:24:44.285Z,1020.96
2019-06-27T00:25:48.650Z,1020.96
2019-06-27T00:26:57.529Z,1020.95
2019-06-27T00:27:57.482Z,1021.00
2019-06-27T00:29:01.905Z,1020.99
2019-06-27T00:30:06.311Z,1021.00
2019-06-27T00:31:10.721Z,1020.99
2019-06-27T00:32:15.085Z,1020.99
2019-06-27T00:33:19.462Z,1020.98
2019-06-27T00:34:23.897Z,1020.99
2019-06-27T00:35:28.331Z,1020.98
2019-06-27T00:36:32.738Z,1021.03
2019-06-27T00:37:37.237Z,1020.99
2019-06-27T00:38:41.622Z,1021.01
2019-06-27T00:39:46.039Z,1021.03
2019-06-27T00:40:50.380Z,1020.99
2019-06-27T00:41:54.793Z,1021.00
2019-06-27T00:42:59.201Z,1020.97
2019-06-27T00:44:03.701Z,1020.97
2019-06-27T00:45:08.011Z,1020.98
2019-06-27T00:46:12.438Z,1020.99
2019-06-27T00:47:16.847Z,1021.01
2019-06-27T00:48:21.252Z,1021.01
2019-06-27T00:49:25.579Z,1020.98
2019-06-27T00:50:30.006Z,1020.98
2019-06-27T00:51:34.387Z,1021.01
2019-06-27T00:52:38.875Z,1021.02
2019-06-27T00:53:43.228Z,1021.03
2019-06-27T00:54:47.680Z,1021.03
2019-06-27T00:55:52.107Z,1021.04
2019-06-27T00:57:09.669Z,1021.07
2019-06-27T00:58:00.934Z,1021.06
2019-06-27T00:59:05.309Z,1021.05
2019-06-27T01:00:09.732Z,1021.05
2019-06-27T01:01:14.023Z,1021.06
2019-06-27T01:02:18.429Z,1021.08
2019-06-27T01:03:22.890Z,1021.10
2019-06-27T01:04:27.283Z,1021.08
2019-06-27T01:05:31.683Z,1021.09
2019-06-27T01:06:36.068Z,1021.08
2019-06-27T01:07:40.480Z,1021.06
2019-06-27T01:08:44.898Z,1021.08
2019-06-27T01:09:49.226Z,1021.07
2019-06-27T01:10:53.558Z,1021.07
2019-06-27T01:11:58.008Z,1021.11
2019-06-27T01:13:02.411Z,1021.10
2019-06-27T01:14:06.835Z,1021.08
2019-06-27T01:15:11.274Z,1021.07
2019-06-27T01:16:15.689Z,1021.04
2019-06-27T01:17:20.084Z,1021.03
2019-06-27T01:18:24.497Z,1021.04
2019-06-27T01:19:28.791Z,1021.07
2019-06-27T01:20:33.270Z,1021.07
2019-06-27T01:21:37.629Z,1021.09
2019-06-27T01:22:42.060Z,1021.11
2019-06-27T01:23:46.447Z,1021.13
2019-06-27T01:24:50.854Z,1021.10
2019-06-27T01:25:55.300Z,1021.12
2019-06-27T01:26:59.582Z,1021.09
2019-06-27T01:28:04.068Z,1021.07
2019-06-27T01:29:08.437Z,1021.04
2019-06-27T01:30:12.902Z,1021.02
2019-06-27T01:31:17.262Z,1021.05
2019-06-27T01:32:21.663Z,1021.04
2019-06-27T01:33:26.068Z,1021.06
2019-06-27T01:34:30.512Z,1021.07
2019-06-27T01:35:34.882Z,1021.07
2019-06-27T01:36:39.263Z,1021.08
2019-06-27T01:37:43.689Z,1021.05
2019-06-27T01:38:48.064Z,1021.06
2019-06-27T01:39:52.465Z,1021.04
2019-06-27T01:40:56.889Z,1021.04
2019-06-27T01:42:01.407Z,1021.03
2019-06-27T01:43:05.716Z,1021.03
2019-06-27T01:44:10.117Z,1021.00
2019-06-27T01:45:14.524Z,1020.99
2019-06-27T01:46:18.929Z,1021.00
2019-06-27T01:47:23.391Z,1021.00
2019-06-27T01:48:27.808Z,1020.99
2019-06-27T01:49:32.150Z,1020.98
2019-06-27T01:50:36.519Z,1020.98
2019-06-27T01:51:40.911Z,1021.01
2019-06-27T01:52:45.305Z,1021.01
2019-06-27T01:53:49.686Z,1021.01
2019-06-27T01:54:54.125Z,1021.01
2019-06-27T01:55:58.572Z,1021.00
2019-06-27T01:57:02.963Z,1020.98
2019-06-27T01:58:07.356Z,1020.98
2019-06-27T01:59:11.698Z,1021.00
2019-06-27T02:00:16.109Z,1021.00
2019-06-27T02:01:20.493Z,1021.03
2019-06-27T02:02:24.866Z,1021.05
2019-06-27T02:03:29.256Z,1021.07
2019-06-27T02:04:33.639Z,1021.08
2019-06-27T02:05:38.017Z,1021.08
2019-06-27T02:06:42.343Z,1021.10
2019-06-27T02:07:46.749Z,1021.10
2019-06-27T02:08:51.147Z,1021.12
2019-06-27T02:09:55.537Z,1021.11
2019-06-27T02:10:59.820Z,1021.11
2019-06-27T02:12:04.344Z,1021.09
2019-06-27T02:13:08.653Z,1021.08
2019-06-27T02:14:13.018Z,1021.10
2019-06-27T02:15:17.457Z,1021.11
2019-06-27T02:16:21.836Z,1021.15
2019-06-27T02:17:26.233Z,1021.13
2019-06-27T02:18:30.580Z,1021.21
2019-06-27T02:19:34.981Z,1021.22
2019-06-27T02:20:39.384Z,1021.24
2019-06-27T02:21:43.673Z,1021.26
2019-06-27T02:22:48.009Z,1021.24
2019-06-27T02:23:52.445Z,1021.27
2019-06-27T02:24:56.722Z,1021.26
2019-06-27T02:26:01.173Z,1021.28
2019-06-27T02:27:05.502Z,1021.30
2019-06-27T02:28:09.844Z,1021.31
2019-06-27T02:29:17.131Z,1021.32
2019-06-27T02:30:20.794Z,1021.28
2019-06-27T02:31:25.139Z,1021.29
2019-06-27T02:32:29.561Z,1021.33
2019-06-27T02:33:33.880Z,1021.32
2019-06-27T02:34:38.312Z,1021.31
2019-06-27T02:35:42.698Z,1021.30
2019-06-27T02:36:47.404Z,1021.32
2019-06-27T02:37:51.608Z,1021.32
2019-06-27T02:38:55.981Z,1021.34
2019-06-27T02:40:00.408Z,1021.33
2019-06-27T02:41:04.761Z,1021.35
2019-06-27T02:42:09.425Z,1021.33
2019-06-27T02:43:13.661Z,1021.37
2019-06-27T02:44:18.043Z,1021.37
2019-06-27T02:45:22.435Z,1021.40
2019-06-27T02:46:26.867Z,1021.37
2019-06-27T02:47:31.210Z,1021.36
2019-06-27T02:48:35.557Z,1021.36
2019-06-27T02:49:39.931Z,1021.37
2019-06-27T02:50:44.398Z,1021.38
2019-06-27T02:51:48.675Z,1021.39
2019-06-27T02:52:53.054Z,1021.40
2019-06-27T02:53:57.391Z,1021.40
2019-06-27T02:55:01.871Z,1021.40
2019-06-27T02:56:06.163Z,1021.43
2019-06-27T02:57:10.610Z,1021.42
2019-06-27T02:58:30.215Z,1021.42
2019-06-27T02:59:19.270Z,1021.42
2019-06-27T03:00:23.674Z,1021.39
2019-06-27T03:01:28.047Z,1021.39
2019-06-27T03:02:32.387Z,1021.36
2019-06-27T03:03:36.754Z,1021.40
2019-06-27T03:04:41.158Z,1021.37
2019-06-27T03:05:45.484Z,1021.38
2019-06-27T03:06:49.972Z,1021.38
2019-06-27T03:07:54.287Z,1021.37
2019-06-27T03:08:58.702Z,1021.38
2019-06-27T03:10:03.050Z,1021.37
2019-06-27T03:11:07.389Z,1021.36
2019-06-27T03:12:11.774Z,1021.38
2019-06-27T03:13:16.196Z,1021.38
2019-06-27T03:14:20.630Z,1021.40
2019-06-27T03:15:25.001Z,1021.39
2019-06-27T03:16:29.353Z,1021.39
2019-06-27T03:17:33.689Z,1021.38
2019-06-27T03:18:38.116Z,1021.35
2019-06-27T03:19:42.489Z,1021.32
2019-06-27T03:20:46.934Z,1021.36
2019-06-27T03:21:51.249Z,1021.35
2019-06-27T03:22:55.709Z,1021.35
2019-06-27T03:24:00.144Z,1021.37
2019-06-27T03:25:04.453Z,1021.34
2019-06-27T03:26:08.841Z,1021.33
2019-06-27T03:27:13.239Z,1021.31
2019-06-27T03:28:17.642Z,1021.29
2019-06-27T03:29:21.966Z,1021.27
2019-06-27T03:30:26.450Z,1021.28
2019-06-27T03:31:30.746Z,1021.28
2019-06-27T03:32:35.217Z,1021.32
2019-06-27T03:33:39.660Z,1021.29
2019-06-27T03:34:44.089Z,1021.32
2019-06-27T03:35:48.366Z,1021.32
2019-06-27T03:36:52.829Z,1021.30
2019-06-27T03:37:57.163Z,1021.33
2019-06-27T03:39:01.608Z,1021.32
2019-06-27T03:40:05.992Z,1021.34
2019-06-27T03:41:10.332Z,1021.35
2019-06-27T03:42:14.697Z,1021.34
2019-06-27T03:43:19.107Z,1021.32
2019-06-27T03:44:23.494Z,1021.32
2019-06-27T03:45:27.823Z,1021.33
2019-06-27T03:46:32.194Z,1021.31
2019-06-27T03:47:36.669Z,1021.32
2019-06-27T03:48:41.010Z,1021.34
2019-06-27T03:49:45.445Z,1021.32
2019-06-27T03:50:49.749Z,1021.30
2019-06-27T03:51:54.231Z,1021.31
2019-06-27T03:52:58.571Z,1021.31
2019-06-27T03:54:03.060Z,1021.30
2019-06-27T03:55:07.425Z,1021.30
2019-06-27T03:56:11.830Z,1021.31
2019-06-27T03:57:16.217Z,1021.29
2019-06-27T03:58:20.618Z,1021.27
2019-06-27T03:59:25.058Z,1021.22
2019-06-27T04:00:29.413Z,1021.26
2019-06-27T04:01:33.827Z,1021.25
2019-06-27T04:02:38.171Z,1021.22
2019-06-27T04:03:43.491Z,1021.23
2019-06-27T04:04:47.083Z,1021.25
2019-06-27T04:05:51.444Z,1021.25
2019-06-27T04:06:55.932Z,1021.27
2019-06-27T04:08:00.261Z,1021.27
2019-06-27T04:09:04.689Z,1021.27
2019-06-27T04:10:09.151Z,1021.28
2019-06-27T04:11:13.481Z,1021.27
2019-06-27T04:12:17.977Z,1021.26
2019-06-27T04:13:22.354Z,1021.27
2019-06-27T04:14:26.719Z,1021.27
2019-06-27T04:15:31.141Z,1021.30
2019-06-27T04:16:35.489Z,1021.30
2019-06-27T04:17:39.846Z,1021.33
2019-06-27T04:18:44.233Z,1021.33
2019-06-27T04:19:48.635Z,1021.32
2019-06-27T04:20:53.022Z,1021.33
2019-06-27T04:21:57.436Z,1021.31
2019-06-27T04:23:01.754Z,1021.33
2019-06-27T04:24:06.133Z,1021.32
2019-06-27T04:25:10.705Z,1021.30
2019-06-27T04:26:14.987Z,1021.33
2019-06-27T04:27:19.317Z,1021.35
2019-06-27T04:28:23.732Z,1021.40
2019-06-27T04:29:33.807Z,1021.38
2019-06-27T04:30:32.377Z,1021.37
2019-06-27T04:31:36.770Z,1021.39
2019-06-27T04:32:41.197Z,1021.40
2019-06-27T04:33:45.594Z,1021.41
2019-06-27T04:34:49.981Z,1021.42
2019-06-27T04:35:54.348Z,1021.46
2019-06-27T04:36:58.747Z,1021.45
2019-06-27T04:38:03.210Z,1021.47
2019-06-27T04:39:07.603Z,1021.50
2019-06-27T04:40:12.029Z,1021.48
2019-06-27T04:41:16.424Z,1021.50
2019-06-27T04:42:20.794Z,1021.43
2019-06-27T04:43:25.192Z,1021.45
2019-06-27T04:44:29.533Z,1021.42
2019-06-27T04:45:33.943Z,1021.42
2019-06-27T04:46:38.338Z,1021.42
2019-06-27T04:47:42.763Z,1021.44
2019-06-27T04:48:47.255Z,1021.48
2019-06-27T04:49:51.608Z,1021.46
2019-06-27T04:50:55.984Z,1021.47
2019-06-27T04:52:00.394Z,1021.49
2019-06-27T04:53:04.780Z,1021.47
2019-06-27T04:54:09.182Z,1021.47
2019-06-27T04:55:13.552Z,1021.52
2019-06-27T04:56:18.054Z,1021.50
2019-06-27T04:57:22.436Z,1021.51
2019-06-27T04:58:26.825Z,1021.51
2019-06-27T04:59:31.224Z,1021.50
2019-06-27T05:00:35.596Z,1021.54
2019-06-27T05:01:39.986Z,1021.50
2019-06-27T05:02:44.341Z,1021.52
2019-06-27T05:03:48.799Z,1021.51
2019-06-27T05:04:53.171Z,1021.49
2019-06-27T05:05:57.635Z,1021.51
2019-06-27T05:07:01.983Z,1021.50
2019-06-27T05:08:06.367Z,1021.50
2019-06-27T05:09:10.744Z,1021.48
2019-06-27T05:10:15.129Z,1021.49
2019-06-27T05:11:19.575Z,1021.50
2019-06-27T05:12:23.964Z,1021.50
2019-06-27T05:13:28.402Z,1021.51
2019-06-27T05:14:32.801Z,1021.56
2019-06-27T05:15:37.076Z,1021.54
2019-06-27T05:16:41.500Z,1021.55
2019-06-27T05:17:45.876Z,1021.53
2019-06-27T05:18:50.100Z,1021.55
2019-06-27T05:19:54.578Z,1021.58
2019-06-27T05:20:58.961Z,1021.55
2019-06-27T05:22:03.322Z,1021.57
2019-06-27T05:23:07.693Z,1021.65
2019-06-27T05:24:12.072Z,1021.60
2019-06-27T05:25:16.455Z,1021.57
2019-06-27T05:26:20.970Z,1021.60
2019-06-27T05:27:25.292Z,1021.62
2019-06-27T05:28:29.728Z,1021.59
2019-06-27T05:29:34.090Z,1021.57
2019-06-27T05:30:38.518Z,1021.62
2019-06-27T05:31:42.970Z,1021.59
2019-06-27T05:32:47.363Z,1021.61
2019-06-27T05:33:51.755Z,1021.64
2019-06-27T05:34:56.229Z,1021.67
2019-06-27T05:36:02.492Z,1021.67
2019-06-27T05:37:05.029Z,1021.70
2019-06-27T05:38:09.399Z,1021.70
2019-06-27T05:39:13.809Z,1021.69
2019-06-27T05:40:18.185Z,1021.71
2019-06-27T05:41:22.569Z,1021.70
2019-06-27T05:42:27.089Z,1021.71
2019-06-27T05:43:31.442Z,1021.69
2019-06-27T05:44:35.857Z,1021.71
2019-06-27T05:45:40.306Z,1021.71
2019-06-27T05:46:44.718Z,1021.74
2019-06-27T05:47:49.137Z,1021.74
2019-06-27T05:48:53.499Z,1021.72
2019-06-27T05:49:57.882Z,1021.74
2019-06-27T05:51:02.453Z,1021.75
2019-06-27T05:52:06.791Z,1021.77
2019-06-27T05:53:11.176Z,1021.76
2019-06-27T05:54:15.579Z,1021.79
2019-06-27T05:55:19.949Z,1021.76
2019-06-27T05:56:24.438Z,1021.80
2019-06-27T05:57:28.841Z,1021.80
2019-06-27T05:58:33.314Z,1021.81
2019-06-27T05:59:37.692Z,1021.83
2019-06-27T06:00:42.065Z,1021.86
2019-06-27T06:01:46.469Z,1021.85
2019-06-27T06:02:50.957Z,1021.82
2019-06-27T06:03:55.410Z,1021.82
2019-06-27T06:04:59.842Z,1021.80
2019-06-27T06:06:04.331Z,1021.81
2019-06-27T06:07:08.701Z,1021.77
2019-06-27T06:08:13.101Z,1021.78
2019-06-27T06:09:17.538Z,1021.78
2019-06-27T06:10:21.864Z,1021.80
2019-06-27T06:11:26.388Z,1021.82
2019-06-27T06:12:30.760Z,1021.80
2019-06-27T06:13:35.157Z,1021.80
2019-06-27T06:14:39.588Z,1021.75
2019-06-27T06:15:43.983Z,1021.78
2019-06-27T06:16:48.372Z,1021.79
2019-06-27T06:17:52.828Z,1021.79
2019-06-27T06:18:57.216Z,1021.75
2019-06-27T06:20:01.664Z,1021.79
2019-06-27T06:21:06.172Z,1021.82
2019-06-27T06:22:10.545Z,1021.86
2019-06-27T06:23:14.929Z,1021.84
2019-06-27T06:24:19.412Z,1021.81
2019-06-27T06:25:23.831Z,1021.83
2019-06-27T06:26:28.249Z,1021.86
2019-06-27T06:27:32.784Z,1021.86
2019-06-27T06:28:37.197Z,1021.88
2019-06-27T06:29:41.554Z,1021.89
2019-06-27T06:30:45.976Z,1021.89
2019-06-27T06:31:50.369Z,1021.91
2019-06-27T06:32:54.816Z,1021.88
2019-06-27T06:33:59.249Z,1021.87
2019-06-27T06:35:03.574Z,1021.90
2019-06-27T06:36:08.008Z,1021.88
2019-06-27T06:37:12.385Z,1021.87
2019-06-27T06:38:16.800Z,1021.87
2019-06-27T06:39:21.201Z,1021.86
2019-06-27T06:40:25.648Z,1021.88
2019-06-27T06:41:30.070Z,1021.87
2019-06-27T06:42:34.477Z,1021.91
2019-06-27T06:43:39.063Z,1021.88
2019-06-27T06:44:43.326Z,1021.89
2019-06-27T06:45:47.766Z,1021.92
2019-06-27T06:46:52.148Z,1021.93
2019-06-27T06:47:56.641Z,1021.89
2019-06-27T06:49:01.017Z,1021.88
2019-06-27T06:50:05.489Z,1021.82
2019-06-27T06:51:09.893Z,1021.84
2019-06-27T06:52:14.346Z,1021.82
2019-06-27T06:53:18.760Z,1021.87
2019-06-27T06:54:23.187Z,1021.85
2019-06-27T06:55:27.575Z,1021.91
2019-06-27T06:56:32.022Z,1021.87
2019-06-27T06:57:36.442Z,1021.90
2019-06-27T06:58:40.857Z,1021.93
2019-06-27T06:59:45.296Z,1021.89
2019-06-27T07:01:00.822Z,1021.87
2019-06-27T07:01:54.130Z,1021.87
2019-06-27T07:02:58.568Z,1021.89
2019-06-27T07:04:02.989Z,1021.91
2019-06-27T07:05:07.390Z,1021.84
2019-06-27T07:06:11.764Z,1021.89
2019-06-27T07:07:16.204Z,1021.90
2019-06-27T07:08:20.633Z,1021.92
2019-06-27T07:09:25.015Z,1021.92
2019-06-27T07:10:29.463Z,1021.90
2019-06-27T07:11:33.894Z,1021.90
2019-06-27T07:12:38.465Z,1021.92
2019-06-27T07:13:42.778Z,1021.89
2019-06-27T07:14:47.188Z,1021.94
2019-06-27T07:15:51.583Z,1021.91
2019-06-27T07:16:55.986Z,1021.92
2019-06-27T07:18:00.446Z,1021.97
2019-06-27T07:19:04.964Z,1021.93
2019-06-27T07:20:09.335Z,1021.95
2019-06-27T07:21:13.781Z,1021.93
2019-06-27T07:22:18.190Z,1021.96
2019-06-27T07:23:22.566Z,1021.92
2019-06-27T07:24:27.104Z,1021.88
2019-06-27T07:25:31.480Z,1021.87
2019-06-27T07:26:35.922Z,1021.84
2019-06-27T07:27:40.389Z,1021.89
2019-06-27T07:28:44.818Z,1021.84
2019-06-27T07:29:49.277Z,1021.79
2019-06-27T07:30:53.672Z,1021.85
2019-06-27T07:31:58.175Z,1021.89
2019-06-27T07:33:02.585Z,1021.86
2019-06-27T07:34:07.001Z,1021.85
2019-06-27T07:35:11.435Z,1021.82
2019-06-27T07:36:15.877Z,1021.81
2019-06-27T07:37:20.295Z,1021.85
2019-06-27T07:38:24.701Z,1021.83
2019-06-27T07:39:29.115Z,1021.84
2019-06-27T07:40:33.529Z,1021.79
2019-06-27T07:41:37.963Z,1021.79
2019-06-27T07:42:42.494Z,1021.78
2019-06-27T07:43:46.867Z,1021.77
2019-06-27T07:44:51.358Z,1021.76
2019-06-27T07:45:55.805Z,1021.83
2019-06-27T07:47:00.194Z,1021.83
2019-06-27T07:48:04.735Z,1021.86
2019-06-27T07:49:09.227Z,1021.84
2019-06-27T07:50:13.641Z,1021.85
2019-06-27T07:51:18.034Z,1021.88
2019-06-27T07:52:22.494Z,1021.89
2019-06-27T07:53:26.887Z,1021.86
2019-06-27T07:54:31.383Z,1021.84
2019-06-27T07:55:35.804Z,1021.88
2019-06-27T07:56:40.207Z,1021.94
2019-06-27T07:57:44.640Z,1021.91
2019-06-27T07:58:49.052Z,1021.89
2019-06-27T07:59:53.509Z,1021.88
2019-06-27T08:00:57.955Z,1021.91
2019-06-27T08:02:02.506Z,1021.98
2019-06-27T08:03:06.793Z,1022.04
2019-06-27T08:04:11.206Z,1022.08
2019-06-27T08:05:15.683Z,1022.09
2019-06-27T08:06:20.134Z,1022.08
2019-06-27T08:07:24.543Z,1022.10
2019-06-27T08:08:28.963Z,1022.07
2019-06-27T08:09:33.432Z,1022.10
2019-06-27T08:10:37.847Z,1022.10
2019-06-27T08:11:42.384Z,1022.04
2019-06-27T08:12:46.845Z,1022.05
2019-06-27T08:13:51.243Z,1022.02
2019-06-27T08:14:55.656Z,1022.03
2019-06-27T08:16:00.070Z,1022.05
2019-06-27T08:17:04.486Z,1022.01
2019-06-27T08:18:08.996Z,1022.06
2019-06-27T08:19:13.407Z,1022.07
2019-06-27T08:20:17.856Z,1022.06
2019-06-27T08:21:22.279Z,1022.05
2019-06-27T08:22:26.690Z,1022.01
2019-06-27T08:23:41.007Z,1021.99
2019-06-27T08:24:35.632Z,1021.95
2019-06-27T08:25:40.060Z,1021.99
2019-06-27T08:26:44.485Z,1021.97
2019-06-27T08:27:48.909Z,1021.98
2019-06-27T08:28:53.319Z,1021.98
2019-06-27T08:29:57.789Z,1021.97
2019-06-27T08:31:02.278Z,1022.01
2019-06-27T08:32:06.655Z,1022.05
2019-06-27T08:33:11.208Z,1022.00
2019-06-27T08:34:15.689Z,1021.98
2019-06-27T08:35:20.066Z,1022.00
2019-06-27T08:36:24.540Z,1022.04
2019-06-27T08:37:28.944Z,1022.02
2019-06-27T08:38:33.376Z,1022.06
2019-06-27T08:39:37.826Z,1022.03
2019-06-27T08:40:42.312Z,1022.03
2019-06-27T08:41:46.723Z,1022.02
2019-06-27T08:42:51.197Z,1021.97
2019-06-27T08:43:55.705Z,1022.02
2019-06-27T08:45:00.071Z,1022.03
2019-06-27T08:46:04.549Z,1022.03
2019-06-27T08:47:08.969Z,1022.01
2019-06-27T08:48:13.425Z,1022.00
2019-06-27T08:49:17.878Z,1022.02
2019-06-27T08:50:22.303Z,1022.01
2019-06-27T08:51:26.737Z,1022.03
2019-06-27T08:52:31.176Z,1021.99
2019-06-27T08:53:35.601Z,1022.06
2019-06-27T08:54:40.139Z,1022.04
2019-06-27T08:55:44.568Z,1021.98
2019-06-27T08:56:49.140Z,1022.01
2019-06-27T08:57:53.492Z,1022.08
2019-06-27T08:58:57.931Z,1022.05
2019-06-27T09:00:02.414Z,1021.96
2019-06-27T09:01:06.859Z,1021.92
2019-06-27T09:02:11.315Z,1021.86
2019-06-27T09:03:15.828Z,1021.88
2019-06-27T09:04:20.219Z,1021.89
2019-06-27T09:05:24.678Z,1021.86
2019-06-27T09:06:29.171Z,1021.88
2019-06-27T09:07:33.627Z,1021.85
2019-06-27T09:08:38.054Z,1021.86
2019-06-27T09:09:42.505Z,1021.94
2019-06-27T09:10:46.939Z,1021.91
2019-06-27T09:11:51.464Z,1021.82
2019-06-27T09:12:55.912Z,1021.87
2019-06-27T09:14:00.288Z,1021.85
2019-06-27T09:15:04.784Z,1021.89
2019-06-27T09:16:09.213Z,1021.90
2019-06-27T09:17:13.693Z,1021.88
2019-06-27T09:18:18.154Z,1021.90
2019-06-27T09:19:22.623Z,1021.95
2019-06-27T09:20:27.083Z,1021.90
2019-06-27T09:21:31.509Z,1021.92
2019-06-27T09:22:36.016Z,1021.88
2019-06-27T09:23:40.420Z,1021.85
2019-06-27T09:24:44.910Z,1021.86
2019-06-27T09:25:49.401Z,1021.86
2019-06-27T09:26:53.842Z,1021.85
2019-06-27T09:27:58.297Z,1021.80
2019-06-27T09:29:02.742Z,1021.83
2019-06-27T09:30:07.169Z,1021.80
2019-06-27T09:31:11.604Z,1021.82
2019-06-27T09:32:25.458Z,1021.83
2019-06-27T09:33:20.495Z,1021.88
2019-06-27T09:34:24.931Z,1021.91
2019-06-27T09:35:29.449Z,1021.93
2019-06-27T09:36:33.924Z,1021.85
2019-06-27T09:37:38.407Z,1021.83
2019-06-27T09:38:42.871Z,1021.86
2019-06-27T09:39:47.318Z,1021.85
2019-06-27T09:40:51.790Z,1021.84
2019-06-27T09:41:56.323Z,1021.85
2019-06-27T09:43:00.788Z,1021.86
2019-06-27T09:44:05.237Z,1021.86
2019-06-27T09:45:09.771Z,1021.85
2019-06-27T09:46:14.292Z,1021.86
2019-06-27T09:47:18.765Z,1021.84
2019-06-27T09:48:23.192Z,1021.87
2019-06-27T09:49:27.588Z,1021.81
2019-06-27T09:50:32.002Z,1021.84
2019-06-27T09:51:36.559Z,1021.84
2019-06-27T09:52:40.963Z,1021.83
2019-06-27T09:53:45.449Z,1021.89
2019-06-27T09:54:49.954Z,1021.92
2019-06-27T09:55:54.400Z,1021.89
2019-06-27T09:56:58.907Z,1021.87
2019-06-27T09:58:03.318Z,1021.87
2019-06-27T09:59:07.785Z,1021.88
2019-06-27T10:00:12.279Z,1021.93
2019-06-27T10:01:16.757Z,1021.96
2019-06-27T10:02:21.208Z,1021.91
2019-06-27T10:03:25.681Z,1021.84
2019-06-27T10:04:30.128Z,1021.91
2019-06-27T10:05:34.569Z,1021.92
2019-06-27T10:06:39.007Z,1021.90
2019-06-27T10:07:43.489Z,1021.94
2019-06-27T10:08:48.057Z,1021.92
2019-06-27T10:09:52.512Z,1021.93
2019-06-27T10:10:56.910Z,1021.93
2019-06-27T10:12:01.386Z,1021.89
2019-06-27T10:13:05.988Z,1021.95
2019-06-27T10:14:10.485Z,1021.96
2019-06-27T10:15:14.962Z,1021.91
2019-06-27T10:16:19.521Z,1021.91
2019-06-27T10:17:24.020Z,1021.92
2019-06-27T10:18:28.544Z,1021.96
2019-06-27T10:19:32.962Z,1021.91
2019-06-27T10:20:37.404Z,1021.93
2019-06-27T10:21:41.911Z,1021.90
2019-06-27T10:22:46.384Z,1021.88
2019-06-27T10:23:50.894Z,1021.86
2019-06-27T10:24:55.372Z,1021.93
2019-06-27T10:25:59.842Z,1021.95
2019-06-27T10:27:04.352Z,1021.90
2019-06-27T10:28:08.773Z,1021.94
2019-06-27T10:29:13.243Z,1021.92
2019-06-27T10:30:17.728Z,1021.87
2019-06-27T10:31:22.182Z,1021.85
2019-06-27T10:32:26.706Z,1021.87
2019-06-27T10:33:31.169Z,1021.87
2019-06-27T10:34:35.587Z,1021.88
2019-06-27T10:35:40.145Z,1021.88
2019-06-27T10:36:44.576Z,1021.91
2019-06-27T10:37:49.100Z,1021.96
2019-06-27T10:38:53.540Z,1021.88
2019-06-27T10:39:57.987Z,1021.90
2019-06-27T10:41:02.436Z,1021.88
2019-06-27T10:42:06.862Z,1021.90
2019-06-27T10:43:11.358Z,1021.87
2019-06-27T10:44:15.847Z,1021.82
2019-06-27T10:45:20.283Z,1021.84
2019-06-27T10:46:24.762Z,1021.83
2019-06-27T10:47:29.258Z,1021.76
2019-06-27T10:48:33.795Z,1021.76
2019-06-27T10:49:38.209Z,1021.73
2019-06-27T10:50:42.709Z,1021.69
2019-06-27T10:51:47.180Z,1021.70
2019-06-27T10:52:51.667Z,1021.76
2019-06-27T10:53:56.133Z,1021.73
2019-06-27T10:55:00.590Z,1021.67
2019-06-27T10:56:05.147Z,1021.73
2019-06-27T10:57:09.633Z,1021.67
2019-06-27T10:58:14.104Z,1021.68
2019-06-27T10:59:18.663Z,1021.73
2019-06-27T11:00:23.122Z,1021.70
2019-06-27T11:01:27.583Z,1021.72
2019-06-27T11:02:32.099Z,1021.70
2019-06-27T11:03:38.606Z,1021.67
2019-06-27T11:04:41.089Z,1021.67
2019-06-27T11:05:45.620Z,1021.63
2019-06-27T11:06:50.069Z,1021.65
2019-06-27T11:07:54.537Z,1021.65
2019-06-27T11:08:59.017Z,1021.55
2019-06-27T11:10:03.494Z,1021.62
2019-06-27T11:11:08.099Z,1021.58
2019-06-27T11:12:12.588Z,1021.60
2019-06-27T11:13:17.112Z,1021.61
2019-06-27T11:14:21.619Z,1021.60
2019-06-27T11:15:26.084Z,1021.56
2019-06-27T11:16:30.664Z,1021.60
2019-06-27T11:17:35.118Z,1021.60
2019-06-27T11:18:39.627Z,1021.54
2019-06-27T11:19:52.423Z,1021.61
2019-06-27T11:20:48.677Z,1021.56
2019-06-27T11:21:53.061Z,1021.59
2019-06-27T11:22:57.513Z,1021.55
2019-06-27T11:24:01.952Z,1021.51
2019-06-27T11:25:06.461Z,1021.49
2019-06-27T11:26:10.971Z,1021.46
2019-06-27T11:27:15.538Z,1021.52
2019-06-27T11:28:19.981Z,1021.51
2019-06-27T11:29:24.480Z,1021.53
2019-06-27T11:30:29.043Z,1021.56
2019-06-27T11:31:33.480Z,1021.50
2019-06-27T11:32:38.025Z,1021.48
2019-06-27T11:33:42.453Z,1021.49
2019-06-27T11:34:47.023Z,1021.53
2019-06-27T11:35:51.600Z,1021.50
2019-06-27T11:36:56.053Z,1021.50
2019-06-27T11:38:00.520Z,1021.46
2019-06-27T11:39:05.095Z,1021.48
2019-06-27T11:40:12.262Z,1021.47
2019-06-27T11:41:14.163Z,1021.46
2019-06-27T11:42:18.651Z,1021.52
2019-06-27T11:43:23.143Z,1021.50
2019-06-27T11:44:27.580Z,1021.42
2019-06-27T11:45:32.192Z,1021.41
2019-06-27T11:46:36.648Z,1021.40
2019-06-27T11:47:41.094Z,1021.42
2019-06-27T11:48:45.627Z,1021.44
2019-06-27T11:49:50.206Z,1021.41
2019-06-27T11:50:54.818Z,1021.44
2019-06-27T11:51:59.199Z,1021.41
2019-06-27T11:53:03.730Z,1021.43
2019-06-27T11:54:08.198Z,1021.45
2019-06-27T11:55:12.707Z,1021.41
2019-06-27T11:56:17.292Z,1021.37
2019-06-27T11:57:21.722Z,1021.38
2019-06-27T11:58:26.316Z,1021.44
2019-06-27T11:59:30.779Z,1021.44
2019-06-27T12:00:35.326Z,1021.46
2019-06-27T12:01:39.766Z,1021.49
2019-06-27T12:02:44.222Z,1021.43
2019-06-27T12:03:50.049Z,1021.45
2019-06-27T12:04:53.343Z,1021.42
2019-06-27T12:05:57.785Z,1021.50
2019-06-27T12:07:02.287Z,1021.50
2019-06-27T12:08:10.671Z,1021.50
2019-06-27T12:09:11.366Z,1021.48
2019-06-27T12:10:15.803Z,1021.46
2019-06-27T12:11:20.308Z,1021.50
2019-06-27T12:12:24.765Z,1021.50
2019-06-27T12:13:29.236Z,1021.45
2019-06-27T12:14:33.815Z,1021.46
2019-06-27T12:15:38.347Z,1021.41
2019-06-27T12:16:42.894Z,1021.43
2019-06-27T12:17:47.406Z,1021.54
2019-06-27T12:18:52.020Z,1021.48
2019-06-27T12:19:56.374Z,1021.45
2019-06-27T12:21:00.917Z,1021.44
2019-06-27T12:22:05.350Z,1021.40
2019-06-27T12:23:09.835Z,1021.43
2019-06-27T12:24:14.395Z,1021.45
2019-06-27T12:25:18.905Z,1021.45
2019-06-27T12:26:23.460Z,1021.43
2019-06-27T12:27:27.913Z,1021.42
2019-06-27T12:28:32.397Z,1021.40
2019-06-27T12:29:36.894Z,1021.38
2019-06-27T12:30:41.346Z,1021.40
2019-06-27T12:31:45.955Z,1021.42
2019-06-27T12:32:52.813Z,1021.45
2019-06-27T12:34:06.046Z,1021.38
2019-06-27T12:34:59.415Z,1021.37
2019-06-27T12:36:03.827Z,1021.40
2019-06-27T12:37:08.428Z,1021.39
2019-06-27T12:38:12.868Z,1021.37
2019-06-27T12:39:17.360Z,1021.38
2019-06-27T12:40:21.860Z,1021.45
2019-06-27T12:41:26.381Z,1021.43
2019-06-27T12:42:32.656Z,1021.39
2019-06-27T12:43:35.474Z,1021.35
2019-06-27T12:44:39.998Z,1021.41
2019-06-27T12:45:44.566Z,1021.43
2019-06-27T12:46:49.104Z,1021.39
2019-06-27T12:47:53.581Z,1021.37
2019-06-27T12:48:58.036Z,1021.33
2019-06-27T12:50:03.373Z,1021.38
2019-06-27T12:51:07.014Z,1021.36
2019-06-27T12:52:11.614Z,1021.30
2019-06-27T12:53:16.043Z,1021.30
2019-06-27T12:54:20.598Z,1021.28
2019-06-27T12:55:25.135Z,1021.25
2019-06-27T12:56:29.564Z,1021.26
2019-06-27T12:57:34.080Z,1021.28
2019-06-27T12:58:38.516Z,1021.29